Time;durP1;ratioP1;P1;durP2;ratioP2;P2;SDS_P1;SDS_P2;PMS_P1;PMS_P2;Temp;Humidity;BMP_temperature;BMP_pressure;BME280_temperature;BME280_humidity;BME280_pressure;Samples;Min_cycle;Max_cycle;Signal;HPM_P1;HPM_P2
2022/01/02 00:00:22;;;;;;;16.55;8.88;;;10.30;99.90;;;;;;5087584;28;20044;-43
2022/01/02 00:02:52;;;;;;;16.33;8.80;;;10.40;99.90;;;;;;5069406;28;20051;-43
2022/01/02 00:05:23;;;;;;;16.13;9.57;;;10.40;99.90;;;;;;5088121;28;20457;-43
2022/01/02 00:07:57;;;;;;;18.02;9.98;;;10.40;99.90;;;;;;5087807;28;20097;-44
2022/01/02 00:10:24;;;;;;;19.73;9.93;;;10.40;99.90;;;;;;5087525;28;20043;-45
2022/01/02 00:13:01;;;;;;;17.45;9.05;;;10.20;99.90;;;;;;5087301;28;20417;-43
2022/01/02 00:15:27;;;;;;;16.40;9.10;;;10.30;99.90;;;;;;5069187;28;20048;-43
2022/01/02 00:18:05;;;;;;;16.85;9.82;;;10.20;99.90;;;;;;5078768;28;20044;-45
2022/01/02 00:20:43;;;;;;;17.48;9.85;;;10.30;99.90;;;;;;5066377;28;20052;-43
2022/01/02 00:23:09;;;;;;;18.90;9.40;;;10.30;99.90;;;;;;5065760;28;20378;-43
2022/01/02 00:25:40;;;;;;;22.52;10.77;;;10.30;99.90;;;;;;5070224;28;20032;-43
2022/01/02 00:28:07;;;;;;;20.85;10.65;;;10.60;99.90;;;;;;5070300;28;20050;-43
2022/01/02 00:30:33;;;;;;;21.02;11.13;;;10.30;99.90;;;;;;5070698;28;20040;-43
2022/01/02 00:33:01;;;;;;;26.50;12.20;;;11.30;99.90;;;;;;5051644;28;20384;-44
2022/01/02 00:35:27;;;;;;;25.80;12.85;;;10.30;99.90;;;;;;5070078;28;20053;-43
2022/01/02 00:37:53;;;;;;;24.83;12.60;;;10.30;99.90;;;;;;5070933;28;20028;-42
2022/01/02 00:40:19;;;;;;;21.92;11.93;;;10.30;99.90;;;;;;5071561;28;20494;-42
2022/01/02 00:42:50;;;;;;;25.65;12.63;;;10.30;99.90;;;;;;5071801;28;20055;-42
2022/01/02 00:45:23;;;;;;;25.55;11.77;;;10.50;99.90;;;;;;5071580;28;20549;-42
2022/01/02 00:48:12;;;;;;;29.00;13.70;;;10.30;99.90;;;;;;5071846;28;20134;-42
2022/01/02 00:50:46;;;;;;;29.08;13.98;;;10.30;99.90;;;;;;5071629;28;20044;-42
2022/01/02 00:53:16;;;;;;;27.42;13.25;;;10.40;99.90;;;;;;5071658;28;20714;-42
2022/01/02 00:55:43;;;;;;;23.15;12.77;;;10.20;99.90;;;;;;5071501;28;20048;-42
2022/01/02 00:58:19;;;;;;;26.65;12.98;;;10.20;99.90;;;;;;5071704;28;20036;-43
2022/01/02 01:00:48;;;;;;;27.13;13.88;;;10.20;99.90;;;;;;5071580;28;20074;-42
2022/01/02 01:03:22;;;;;;;32.55;13.48;;;10.20;99.90;;;;;;5071470;28;20115;-42
2022/01/02 01:05:51;;;;;;;24.33;10.98;;;10.10;99.90;;;;;;5071394;28;20041;-43
2022/01/02 01:08:17;;;;;;;28.27;12.85;;;10.20;99.90;;;;;;5071476;28;20053;-42
2022/01/02 01:10:44;;;;;;;26.00;14.43;;;10.10;99.90;;;;;;5071509;28;20044;-42
2022/01/02 01:13:10;;;;;;;28.77;13.07;;;10.30;99.90;;;;;;5071331;28;20572;-42
2022/01/02 01:15:38;;;;;;;28.77;15.10;;;10.00;99.90;;;;;;5070674;28;20565;-43
2022/01/02 01:18:05;;;;;;;29.20;14.18;;;10.20;99.90;;;;;;5071217;28;20037;-42
2022/01/02 01:20:35;;;;;;;30.80;14.50;;;10.30;99.90;;;;;;5071257;28;20363;-42
2022/01/02 01:23:01;;;;;;;32.05;13.90;;;10.50;99.90;;;;;;5071225;28;20570;-42
2022/01/02 01:25:26;;;;;;;28.77;13.25;;;10.00;99.90;;;;;;5071465;28;20127;-44
2022/01/02 01:27:54;;;;;;;30.52;14.27;;;10.30;99.90;;;;;;5071027;28;20121;-42
2022/01/02 01:30:22;;;;;;;35.55;15.57;;;10.70;99.90;;;;;;5071076;28;20066;-42
2022/01/02 01:32:48;;;;;;;29.75;13.52;;;10.70;99.90;;;;;;5070887;28;20056;-43
2022/01/02 01:35:14;;;;;;;37.85;14.77;;;10.40;99.90;;;;;;5070283;28;20053;-42
2022/01/02 01:37:40;;;;;;;30.98;15.60;;;10.30;99.90;;;;;;5072928;28;20073;-41
2022/01/02 01:40:11;;;;;;;34.40;14.95;;;10.30;99.90;;;;;;5091112;28;20043;-42
2022/01/02 01:42:43;;;;;;;34.88;15.82;;;10.30;99.90;;;;;;5091164;28;20044;-42
2022/01/02 01:48:04;;;;;;;38.40;15.20;;;10.30;99.90;;;;;;5091415;28;20105;-43
2022/01/02 01:50:36;;;;;;;40.28;17.00;;;10.40;99.90;;;;;;5091158;28;20047;-43
2022/01/02 01:53:03;;;;;;;31.95;14.60;;;10.30;99.90;;;;;;5090981;28;20040;-42
2022/01/02 01:55:29;;;;;;;30.73;15.63;;;10.30;99.90;;;;;;5090865;28;20127;-43
2022/01/02 01:57:55;;;;;;;31.90;15.52;;;11.20;99.90;;;;;;5090770;28;20458;-42
2022/01/02 02:00:22;;;;;;;37.78;17.27;;;10.20;99.90;;;;;;5091157;28;20071;-42
2022/01/02 02:02:49;;;;;;;34.90;17.10;;;10.20;99.90;;;;;;5090813;28;20084;-41
2022/01/02 02:05:14;;;;;;;35.88;18.02;;;10.30;99.90;;;;;;5091079;28;20044;-42
2022/01/02 02:07:42;;;;;;;32.30;16.58;;;10.60;99.90;;;;;;5090804;28;20367;-43
2022/01/02 02:10:18;;;;;;;37.45;16.58;;;10.70;99.90;;;;;;5090585;28;20055;-41
2022/01/02 02:12:46;;;;;;;36.17;16.77;;;10.20;99.90;;;;;;5090378;28;20509;-42
2022/01/02 02:15:14;;;;;;;37.35;18.48;;;11.00;99.90;;;;;;5090493;28;20405;-43
2022/01/02 02:17:43;;;;;;;37.47;16.13;;;10.30;99.90;;;;;;5090609;28;20040;-41
2022/01/02 02:20:18;;;;;;;40.03;17.13;;;10.50;99.90;;;;;;5072545;28;20044;-42
2022/01/02 02:22:48;;;;;;;45.65;19.05;;;10.30;99.90;;;;;;5090286;28;20371;-42
2022/01/02 02:25:15;;;;;;;45.00;19.58;;;10.30;99.90;;;;;;5090539;28;20401;-42
2022/01/02 02:27:52;;;;;;;39.92;17.88;;;10.30;99.90;;;;;;5090317;28;20040;-43
2022/01/02 02:30:19;;;;;;;48.88;19.50;;;10.30;99.90;;;;;;5090537;28;20143;-42
2022/01/02 02:32:45;;;;;;;37.30;17.65;;;10.30;99.90;;;;;;5089852;28;20058;-42
2022/01/02 02:35:11;;;;;;;45.35;17.25;;;10.30;99.90;;;;;;5089939;28;20131;-42
2022/01/02 02:37:44;;;;;;;37.33;16.27;;;10.30;99.90;;;;;;5087426;28;20120;-42
2022/01/02 02:40:16;;;;;;;35.92;17.40;;;10.50;99.90;;;;;;5089891;28;20047;-42
2022/01/02 02:42:50;;;;;;;32.08;15.57;;;10.30;99.90;;;;;;5090464;28;20032;-42
2022/01/02 02:54:04;;;;;;;44.58;17.10;;;10.30;99.90;;;;;;5089932;28;20100;-42
2022/01/02 02:56:42;;;;;;;37.22;16.38;;;10.50;99.90;;;;;;5090159;28;20482;-42
2022/01/02 02:59:09;;;;;;;41.33;17.10;;;10.20;99.90;;;;;;5089956;28;20032;-41
2022/01/02 03:01:36;;;;;;;36.17;15.85;;;10.30;99.90;;;;;;5089942;28;20043;-41
2022/01/02 03:04:02;;;;;;;35.42;17.02;;;10.30;99.90;;;;;;5089944;28;20101;-41
2022/01/02 03:06:27;;;;;;;34.10;17.88;;;10.30;99.90;;;;;;5090203;28;20085;-42
2022/01/02 03:08:53;;;;;;;35.83;18.83;;;10.50;99.90;;;;;;5089781;28;20039;-42
2022/01/02 03:11:21;;;;;;;44.53;19.77;;;10.30;99.90;;;;;;5089956;28;20044;-41
2022/01/02 03:13:52;;;;;;;40.25;17.20;;;10.30;99.90;;;;;;5089878;28;20090;-42
2022/01/02 03:16:18;;;;;;;39.05;18.95;;;10.90;99.90;;;;;;5089883;28;20032;-41
2022/01/02 03:18:44;;;;;;;41.05;18.90;;;10.40;99.90;;;;;;5089590;28;20044;-42
2022/01/02 03:21:11;;;;;;;43.58;19.33;;;10.30;99.90;;;;;;5089749;28;20040;-41
2022/01/02 03:23:37;;;;;;;49.15;20.27;;;11.20;99.90;;;;;;5090011;28;20117;-42
2022/01/02 03:26:04;;;;;;;42.33;18.95;;;10.30;99.90;;;;;;5089432;28;20044;-42
2022/01/02 03:28:30;;;;;;;53.40;23.23;;;10.40;99.90;;;;;;5089644;28;20047;-42
2022/01/02 03:30:55;;;;;;;47.67;19.73;;;10.60;99.90;;;;;;5089247;28;20036;-42
2022/01/02 03:33:22;;;;;;;46.90;19.80;;;10.30;99.90;;;;;;5071236;28;20394;-42
2022/01/02 03:35:48;;;;;;;43.20;19.25;;;10.30;99.90;;;;;;5089545;28;20047;-42
2022/01/02 03:38:14;;;;;;;48.75;19.23;;;11.30;99.90;;;;;;5086224;28;20491;-41
2022/01/02 03:40:39;;;;;;;41.97;18.63;;;10.30;99.90;;;;;;5089567;28;20431;-42
2022/01/02 03:43:06;;;;;;;37.28;18.40;;;10.30;99.90;;;;;;5089303;28;20386;-42
2022/01/02 03:45:32;;;;;;;45.80;16.48;;;10.10;99.90;;;;;;5089348;28;20063;-42
2022/01/02 03:47:57;;;;;;;33.55;16.17;;;10.70;99.90;;;;;;5089041;28;20067;-43
2022/01/02 03:50:23;;;;;;;44.53;20.60;;;11.10;99.90;;;;;;5089444;28;20603;-41
2022/01/02 03:52:49;;;;;;;42.08;19.08;;;10.40;99.90;;;;;;5089567;28;20036;-42
2022/01/02 03:55:15;;;;;;;37.45;18.02;;;10.20;99.90;;;;;;5089218;28;20133;-42
2022/01/02 03:57:40;;;;;;;38.33;17.05;;;10.40;99.90;;;;;;5089568;28;20036;-42
2022/01/02 04:00:10;;;;;;;40.08;18.38;;;11.30;99.90;;;;;;5092047;28;20370;-41
2022/01/02 04:02:37;;;;;;;35.67;16.15;;;10.40;99.90;;;;;;5092984;28;20036;-41
2022/01/02 04:05:07;;;;;;;36.03;17.25;;;10.40;99.90;;;;;;5093033;28;20470;-43
2022/01/02 04:07:33;;;;;;;36.63;16.80;;;10.40;99.90;;;;;;5093132;28;20047;-42
2022/01/02 04:10:03;;;;;;;31.40;13.95;;;11.10;99.90;;;;;;5092871;28;20075;-42
2022/01/02 04:12:28;;;;;;;38.08;16.02;;;10.30;99.90;;;;;;5093042;28;20047;-42
2022/01/02 04:14:54;;;;;;;36.58;15.55;;;10.40;99.90;;;;;;5093011;28;20052;-42
2022/01/02 04:17:20;;;;;;;33.63;14.85;;;10.40;99.90;;;;;;5092668;28;20481;-42
2022/01/02 04:19:45;;;;;;;38.00;16.13;;;10.40;99.90;;;;;;5092830;28;20036;-42
2022/01/02 04:22:11;;;;;;;51.47;16.60;;;10.30;99.90;;;;;;5074120;28;20524;-46
2022/01/02 04:24:37;;;;;;;31.67;13.88;;;10.80;99.90;;;;;;5092566;28;20043;-43
2022/01/02 04:27:02;;;;;;;41.03;16.17;;;10.40;99.90;;;;;;5092456;28;20044;-42
2022/01/02 04:29:28;;;;;;;35.95;14.48;;;10.40;99.90;;;;;;5092801;28;20444;-44
2022/01/02 04:31:54;;;;;;;29.92;14.13;;;10.40;99.90;;;;;;5092241;28;20056;-43
2022/01/02 04:34:19;;;;;;;37.97;15.23;;;10.40;99.90;;;;;;5092266;28;20521;-54
2022/01/02 04:36:45;;;;;;;34.65;15.25;;;10.40;99.90;;;;;;5092521;28;20089;-42
2022/01/02 04:39:11;;;;;;;42.03;17.15;;;10.40;99.90;;;;;;5089330;28;20044;-42
2022/01/02 04:41:37;;;;;;;32.35;15.52;;;10.40;99.90;;;;;;5092671;28;20494;-42
2022/01/02 04:44:02;;;;;;;37.53;15.55;;;10.40;99.90;;;;;;5092514;28;20036;-42
2022/01/02 04:46:28;;;;;;;33.45;15.30;;;10.40;99.90;;;;;;5091895;28;20547;-42
2022/01/02 04:48:54;;;;;;;35.55;16.40;;;10.20;99.90;;;;;;5092423;28;20044;-42
2022/01/02 04:51:19;;;;;;;36.00;15.45;;;10.80;99.90;;;;;;5092054;28;20051;-42
2022/01/02 04:53:49;;;;;;;40.22;15.38;;;10.40;99.90;;;;;;5092377;28;20040;-42
2022/01/02 04:56:15;;;;;;;42.47;16.90;;;11.10;99.90;;;;;;5091869;28;20048;-42
2022/01/02 04:58:42;;;;;;;36.03;16.50;;;10.70;99.90;;;;;;5092091;28;20043;-42
2022/01/02 05:01:11;;;;;;;40.50;15.70;;;10.40;99.90;;;;;;5056819;28;20048;-41
2022/01/02 05:03:43;;;;;;;37.20;15.23;;;10.30;99.90;;;;;;5092288;28;20048;-42
2022/01/02 05:06:09;;;;;;;;;;;10.40;99.90;;;;;;5092529;28;20040;-43
2022/01/02 05:08:35;;;;;;;41.83;15.48;;;10.40;99.90;;;;;;5074007;28;20344;-42
2022/01/02 05:11:01;;;;;;;33.20;13.48;;;10.40;99.90;;;;;;5091958;28;20095;-41
2022/01/02 05:13:27;;;;;;;39.40;15.90;;;10.40;99.90;;;;;;5092106;28;20470;-42
2022/01/02 05:15:53;;;;;;;30.77;13.65;;;10.70;99.90;;;;;;5091868;28;20051;-42
2022/01/02 05:18:19;;;;;;;32.22;12.65;;;10.50;99.90;;;;;;5091649;28;20040;-41
2022/01/02 05:20:46;;;;;;;35.67;14.75;;;10.20;99.90;;;;;;5091740;28;20054;-42
2022/01/02 05:23:13;;;;;;;31.40;12.38;;;10.40;99.90;;;;;;5091925;28;20050;-42
2022/01/02 05:25:39;;;;;;;36.78;12.70;;;10.50;99.90;;;;;;5091963;28;20047;-43
2022/01/02 05:28:05;;;;;;;36.45;12.63;;;10.70;99.90;;;;;;5091615;28;20040;-42
2022/01/02 05:30:31;;;;;;;31.15;13.68;;;10.50;99.90;;;;;;5091509;28;20482;-42
2022/01/02 05:32:56;;;;;;;32.78;12.63;;;10.60;99.90;;;;;;5091782;28;20520;-42
2022/01/02 05:35:22;;;;;;;35.70;12.10;;;10.60;99.90;;;;;;5091253;28;20052;-43
2022/01/02 05:37:48;;;;;;;32.45;13.55;;;10.60;99.90;;;;;;5088292;28;20080;-42
2022/01/02 05:40:13;;;;;;;32.40;12.60;;;10.60;99.90;;;;;;5091368;28;20056;-41
2022/01/02 05:42:39;;;;;;;27.25;11.93;;;10.60;99.90;;;;;;5091394;28;20074;-41
2022/01/02 05:45:05;;;;;;;37.75;13.93;;;11.00;99.90;;;;;;5091510;28;20048;-42
2022/01/02 05:47:31;;;;;;;30.67;11.82;;;10.60;99.90;;;;;;5091136;28;20048;-43
2022/01/02 05:49:56;;;;;;;41.80;13.65;;;10.70;99.90;;;;;;5091294;28;20393;-42
2022/01/02 05:52:22;;;;;;;43.00;13.50;;;10.60;99.90;;;;;;5090936;28;20040;-42
2022/01/02 05:54:48;;;;;;;41.83;11.88;;;10.70;99.90;;;;;;5091274;28;20052;-43
2022/01/02 05:57:13;;;;;;;27.05;11.85;;;10.50;99.90;;;;;;5090986;28;20040;-43
2022/01/02 05:59:40;;;;;;;33.05;12.85;;;10.70;99.90;;;;;;5090831;28;20036;-42
2022/01/02 06:02:06;;;;;;;30.40;11.85;;;11.30;99.90;;;;;;5073079;28;20044;-43
2022/01/02 06:04:32;;;;;;;34.50;13.48;;;10.70;99.90;;;;;;5091011;28;20040;-42
2022/01/02 06:06:57;;;;;;;32.97;12.80;;;10.90;99.90;;;;;;5073103;28;20071;-42
2022/01/02 06:09:23;;;;;;;32.90;11.65;;;10.70;99.90;;;;;;5091163;28;20374;-42
2022/01/02 06:11:49;;;;;;;34.72;13.45;;;11.10;99.90;;;;;;5091317;28;20051;-41
2022/01/02 06:14:16;;;;;;;29.55;12.32;;;10.60;99.90;;;;;;5090946;28;20078;-42
2022/01/02 06:16:42;;;;;;;40.42;12.30;;;10.70;99.90;;;;;;5091045;28;20035;-42
2022/01/02 06:19:08;;;;;;;35.22;11.75;;;10.70;99.90;;;;;;5090970;28;20512;-42
2022/01/02 06:21:33;;;;;;;33.65;12.63;;;10.70;99.90;;;;;;5089944;28;20036;-41
2022/01/02 06:23:59;;;;;;;28.70;10.95;;;11.80;99.90;;;;;;5090587;28;20043;-42
2022/01/02 06:26:25;;;;;;;32.67;10.55;;;10.80;99.90;;;;;;5090501;28;20047;-44
2022/01/02 06:28:50;;;;;;;34.60;11.07;;;10.70;99.90;;;;;;5090429;28;20078;-42
2022/01/02 06:31:16;;;;;;;32.80;12.15;;;11.20;99.90;;;;;;5090405;28;20051;-41
2022/01/02 06:33:42;;;;;;;25.45;11.63;;;11.10;99.90;;;;;;5090048;28;20052;-42
2022/01/02 06:36:07;;;;;;;27.67;9.68;;;11.10;99.90;;;;;;5090497;28;20439;-42
2022/01/02 06:38:33;;;;;;;32.35;10.77;;;10.90;99.90;;;;;;5086865;28;20082;-43
2022/01/02 06:40:59;;;;;;;28.23;9.65;;;10.90;99.90;;;;;;5090343;28;20393;-43
2022/01/02 06:43:24;;;;;;;22.70;9.48;;;10.90;99.90;;;;;;5090265;28;20050;-42
2022/01/02 06:45:50;;;;;;;25.88;9.43;;;11.00;99.90;;;;;;5072332;28;20126;-42
2022/01/02 06:48:16;;;;;;;28.48;11.75;;;11.70;99.90;;;;;;5090135;28;20094;-42
2022/01/02 06:50:42;;;;;;;24.60;10.60;;;11.10;99.90;;;;;;5089966;28;20040;-43
2022/01/02 06:53:07;;;;;;;30.10;10.32;;;11.10;99.90;;;;;;5071801;28;20522;-42
2022/01/02 06:55:33;;;;;;;22.05;8.10;;;11.00;99.90;;;;;;5089969;28;20386;-42
2022/01/02 06:57:59;;;;;;;19.63;8.30;;;11.30;99.90;;;;;;5089882;28;20039;-42
2022/01/02 07:00:25;;;;;;;28.48;7.93;;;11.10;99.90;;;;;;5089878;28;20055;-42
2022/01/02 07:02:51;;;;;;;27.50;8.00;;;12.30;99.90;;;;;;5072049;28;20529;-41
2022/01/02 07:05:16;;;;;;;25.63;7.43;;;11.10;99.90;;;;;;5090123;28;20176;-42
2022/01/02 07:07:43;;;;;;;21.88;7.20;;;11.10;99.90;;;;;;5089455;28;20108;-42
2022/01/02 07:10:11;;;;;;;25.50;7.88;;;11.10;99.90;;;;;;5089802;28;20067;-42
2022/01/02 07:12:37;;;;;;;23.13;8.20;;;11.10;99.90;;;;;;5089433;28;20044;-41
2022/01/02 07:15:08;;;;;;;25.85;8.73;;;11.10;99.90;;;;;;5079745;28;20048;-42
2022/01/02 07:17:35;;;;;;;21.20;8.30;;;11.10;99.90;;;;;;5068647;28;20048;-44
2022/01/02 07:20:03;;;;;;;22.38;8.02;;;11.50;99.90;;;;;;5069077;28;20080;-43
2022/01/02 07:22:28;;;;;;;24.27;7.28;;;11.10;99.90;;;;;;5068929;28;20048;-42
2022/01/02 07:24:55;;;;;;;16.77;7.63;;;11.10;99.90;;;;;;5068876;28;20038;-42
2022/01/02 07:27:21;;;;;;;24.02;7.68;;;11.20;99.90;;;;;;5068865;28;20072;-43
2022/01/02 07:29:48;;;;;;;20.85;7.85;;;11.40;99.90;;;;;;5068872;28;20066;-42
2022/01/02 07:32:15;;;;;;;20.13;7.35;;;11.00;99.90;;;;;;5068829;28;20040;-42
2022/01/02 07:34:42;;;;;;;21.65;8.15;;;11.50;99.90;;;;;;5072791;28;20094;-42
2022/01/02 07:37:08;;;;;;;26.17;9.80;;;11.10;99.90;;;;;;5072598;28;20032;-43
2022/01/02 07:39:34;;;;;;;18.40;6.70;;;10.80;99.90;;;;;;5072698;28;20106;-42
2022/01/02 07:41:59;;;;;;;24.67;8.63;;;11.20;99.90;;;;;;5072708;28;20036;-43
2022/01/02 07:44:25;;;;;;;27.08;8.50;;;10.90;99.90;;;;;;5071969;28;20124;-42
2022/01/02 07:46:51;;;;;;;19.05;7.80;;;10.80;99.90;;;;;;5072680;28;20053;-42
2022/01/02 07:49:17;;;;;;;20.70;7.53;;;10.80;99.90;;;;;;5070073;28;20033;-42
2022/01/02 07:51:42;;;;;;;18.30;8.10;;;10.80;99.90;;;;;;5072901;28;20033;-42
2022/01/02 07:54:08;;;;;;;18.63;8.25;;;9.90;99.90;;;;;;5072718;28;20075;-42
2022/01/02 07:56:34;;;;;;;17.90;7.45;;;10.80;99.90;;;;;;5072379;28;20076;-42
2022/01/02 07:59:00;;;;;;;17.60;7.90;;;11.10;99.90;;;;;;5072176;28;20032;-42
2022/01/02 08:01:26;;;;;;;17.08;8.82;;;10.80;99.90;;;;;;5072417;28;20040;-42
2022/01/02 08:03:52;;;;;;;21.95;9.57;;;10.80;99.90;;;;;;5072193;28;20040;-44
2022/01/02 08:06:18;;;;;;;17.77;8.68;;;10.80;99.90;;;;;;5072626;28;20105;-42
2022/01/02 08:08:45;;;;;;;20.05;8.75;;;11.00;99.90;;;;;;5071954;28;20498;-42
2022/01/02 08:11:12;;;;;;;21.48;8.65;;;10.70;99.90;;;;;;5072095;28;20036;-42
2022/01/02 08:13:37;;;;;;;24.45;8.68;;;10.70;99.90;;;;;;5069368;28;20119;-43
2022/01/02 08:16:03;;;;;;;17.50;8.10;;;10.70;99.90;;;;;;5072038;28;20056;-42
2022/01/02 08:18:29;;;;;;;19.27;8.85;;;10.70;99.90;;;;;;5072192;28;20467;-43
2022/01/02 08:20:57;;;;;;;23.20;8.23;;;10.70;99.90;;;;;;5053758;28;20127;-42
2022/01/02 08:23:23;;;;;;;21.67;8.60;;;10.70;99.90;;;;;;5071956;28;20490;-42
2022/01/02 08:25:49;;;;;;;21.52;9.63;;;10.90;99.90;;;;;;5072066;28;20045;-42
2022/01/02 08:28:15;;;;;;;23.55;9.32;;;10.70;99.90;;;;;;5072234;28;20048;-41
2022/01/02 08:30:43;;;;;;;20.45;9.85;;;10.70;99.90;;;;;;5072466;28;20033;-42
2022/01/02 08:33:10;;;;;;;17.08;8.60;;;10.70;99.90;;;;;;5071998;28;20061;-43
2022/01/02 08:35:39;;;;;;;25.67;9.88;;;10.70;99.90;;;;;;5072227;28;20051;-42
2022/01/02 08:38:04;;;;;;;22.20;9.23;;;10.70;99.90;;;;;;5071318;28;20039;-42
2022/01/02 08:40:30;;;;;;;19.92;9.57;;;10.60;99.90;;;;;;5071757;28;20036;-42
2022/01/02 08:42:56;;;;;;;25.05;9.55;;;10.60;99.90;;;;;;5071326;28;20079;-43
2022/01/02 08:45:23;;;;;;;21.00;8.75;;;10.60;99.90;;;;;;5070509;28;20566;-42
2022/01/02 08:47:49;;;;;;;20.25;8.55;;;10.60;99.90;;;;;;5071679;28;20041;-42
2022/01/02 08:50:15;;;;;;;21.98;8.77;;;10.60;99.90;;;;;;5071350;28;20108;-43
2022/01/02 08:52:41;;;;;;;17.50;8.70;;;10.60;99.90;;;;;;5071485;28;20150;-42
2022/01/02 08:55:07;;;;;;;21.60;7.65;;;10.60;99.90;;;;;;5071554;28;20044;-42
2022/01/02 08:57:32;;;;;;;15.93;7.45;;;10.60;99.90;;;;;;5071615;28;20098;-43
2022/01/02 08:59:58;;;;;;;19.23;8.10;;;10.60;99.90;;;;;;5071305;28;20427;-41
2022/01/02 09:02:24;;;;;;;21.60;7.93;;;10.50;99.90;;;;;;5071873;28;20040;-42
2022/01/02 09:04:49;;;;;;;17.42;6.70;;;10.60;99.90;;;;;;5071539;28;20036;-42
2022/01/02 09:07:15;;;;;;;19.25;7.00;;;10.60;99.90;;;;;;5071225;28;20470;-42
2022/01/02 09:09:41;;;;;;;21.73;6.93;;;10.80;99.90;;;;;;5071344;28;20036;-42
2022/01/02 09:12:08;;;;;;;15.90;7.38;;;10.60;99.90;;;;;;5090661;28;20043;-44
2022/01/02 09:14:35;;;;;;;19.27;7.80;;;10.60;99.90;;;;;;5088915;28;20055;-42
2022/01/02 09:17:01;;;;;;;18.25;7.25;;;10.60;99.90;;;;;;5086236;28;20065;-43
2022/01/02 09:19:26;;;;;;;18.45;7.35;;;10.60;99.90;;;;;;5071643;28;20037;-42
2022/01/02 09:21:52;;;;;;;18.65;8.38;;;10.70;99.90;;;;;;5070968;28;20128;-42
2022/01/02 09:24:18;;;;;;;17.80;7.35;;;10.70;99.90;;;;;;5076194;28;20039;-41
2022/01/02 09:26:44;;;;;;;22.05;7.53;;;10.70;99.90;;;;;;5090900;28;20043;-44
2022/01/02 09:29:09;;;;;;;15.35;6.13;;;10.70;99.90;;;;;;5090706;28;20035;-42
2022/01/02 09:31:35;;;;;;;21.02;7.28;;;10.70;99.90;;;;;;5090731;28;20371;-42
2022/01/02 09:34:01;;;;;;;19.25;8.23;;;10.80;99.90;;;;;;5090062;28;20082;-42
2022/01/02 09:36:27;;;;;;;18.27;7.45;;;10.80;99.90;;;;;;5090393;28;20071;-42
2022/01/02 09:38:54;;;;;;;17.95;7.65;;;10.80;99.90;;;;;;5087695;28;20489;-42
2022/01/02 09:41:20;;;;;;;18.45;8.48;;;11.10;99.90;;;;;;5090495;28;20544;-44
2022/01/02 09:43:47;;;;;;;19.63;7.30;;;10.90;99.90;;;;;;5084196;28;20039;-42
2022/01/02 09:46:24;;;;;;;13.73;6.45;;;10.90;99.90;;;;;;5070060;28;20402;-42
2022/01/02 09:48:51;;;;;;;13.02;6.57;;;10.90;99.90;;;;;;5068719;28;20043;-41
2022/01/02 09:51:20;;;;;;;13.88;6.90;;;10.80;99.90;;;;;;5070198;28;20040;-42
2022/01/02 09:53:46;;;;;;;15.23;7.05;;;10.90;99.90;;;;;;5068047;28;20036;-42
2022/01/02 09:56:13;;;;;;;15.82;7.40;;;10.90;99.90;;;;;;5069181;28;20478;-42
2022/01/02 09:58:42;;;;;;;13.07;7.60;;;11.00;99.90;;;;;;5070190;28;20048;-42
2022/01/02 10:01:18;;;;;;;16.33;6.95;;;11.00;99.90;;;;;;5069964;28;20530;-41
2022/01/02 10:03:47;;;;;;;13.18;7.50;;;11.00;99.90;;;;;;4366861;28;10000777;-43
2022/01/02 10:06:13;;;;;;;13.77;6.45;;;11.00;99.90;;;;;;5068683;28;20044;-42
2022/01/02 10:08:39;;;;;;;18.20;7.30;;;11.40;99.90;;;;;;5050828;28;20047;-42
2022/01/02 10:11:18;;;;;;;19.25;7.53;;;11.50;99.90;;;;;;5068328;28;20115;-41
2022/01/02 10:13:45;;;;;;;17.98;8.10;;;11.40;99.90;;;;;;5068003;28;20379;-43
2022/01/02 10:16:36;;;;;;;16.08;9.07;;;11.20;99.90;;;;;;5068508;28;20398;-42
2022/01/02 10:19:29;;;;;;;18.63;7.13;;;11.20;99.90;;;;;;5081854;28;20462;-42
2022/01/02 10:22:06;;;;;;;19.25;8.25;;;11.10;99.90;;;;;;5085087;28;20035;-42
2022/01/02 10:24:37;;;;;;;16.13;8.48;;;11.40;99.90;;;;;;5083541;28;20096;-42
2022/01/02 10:27:19;;;;;;;17.57;7.90;;;11.00;99.90;;;;;;5088019;28;20044;-42
2022/01/02 10:29:56;;;;;;;18.53;8.97;;;11.00;99.90;;;;;;5087002;28;20044;-42
2022/01/02 10:32:26;;;;;;;14.73;8.02;;;10.90;99.90;;;;;;5087870;28;20052;-42
2022/01/02 10:35:06;;;;;;;19.45;8.90;;;10.90;99.90;;;;;;5084166;28;20409;-42
2022/01/02 10:37:31;;;;;;;14.15;9.35;;;10.90;99.90;;;;;;5081546;28;20122;-43
2022/01/02 10:39:57;;;;;;;14.80;8.18;;;11.80;99.90;;;;;;5087903;28;20040;-43
2022/01/02 10:42:23;;;;;;;19.05;9.00;;;10.80;99.90;;;;;;5086098;28;21092;-41
2022/01/02 10:44:49;;;;;;;13.98;8.40;;;10.90;99.90;;;;;;5085855;28;20051;-43
2022/01/02 10:47:21;;;;;;;16.58;9.32;;;10.90;99.90;;;;;;5087680;28;20047;-42
2022/01/02 10:50:07;;;;;;;11.75;7.22;;;10.90;99.90;;;;;;5087743;28;20789;-42
2022/01/02 10:52:42;;;;;;;14.88;8.55;;;10.90;99.90;;;;;;5088013;28;20067;-42
2022/01/02 10:55:18;;;;;;;15.63;8.32;;;11.10;99.90;;;;;;5069242;28;20407;-42
2022/01/02 10:57:49;;;;;;;16.75;9.20;;;11.00;99.90;;;;;;5068130;28;20230;-42
2022/01/02 11:00:20;;;;;;;14.98;8.43;;;11.10;99.90;;;;;;5050533;28;20046;-42
2022/01/02 11:02:46;;;;;;;16.65;7.50;;;11.10;99.90;;;;;;5068201;28;20506;-41
2022/01/02 11:05:15;;;;;;;16.23;7.63;;;11.20;99.90;;;;;;5068073;28;20063;-42
2022/01/02 11:07:52;;;;;;;13.18;7.38;;;11.30;99.90;;;;;;5067278;28;20809;-41
2022/01/02 11:10:22;;;;;;;15.60;7.25;;;11.20;99.90;;;;;;5067744;28;20437;-42
2022/01/02 11:12:49;;;;;;;12.60;6.47;;;11.40;99.90;;;;;;5068166;28;20049;-42
2022/01/02 11:15:24;;;;;;;14.15;6.70;;;11.10;99.90;;;;;;5067684;28;20113;-42
2022/01/02 11:17:50;;;;;;;11.80;5.82;;;11.10;99.90;;;;;;5067972;28;20040;-42
2022/01/02 11:20:21;;;;;;;11.77;6.38;;;11.00;99.90;;;;;;5067662;28;20497;-43
2022/01/02 11:23:04;;;;;;;14.80;5.85;;;10.90;99.90;;;;;;5068418;28;20515;-43
2022/01/02 11:25:42;;;;;;;13.98;6.47;;;10.90;99.90;;;;;;5067748;28;20045;-42
2022/01/02 11:28:26;;;;;;;10.25;5.15;;;10.90;99.90;;;;;;5067674;28;20045;-43
2022/01/02 11:30:53;;;;;;;13.25;6.40;;;10.90;99.90;;;;;;5067708;28;20119;-42
2022/01/02 11:33:30;;;;;;;20.50;6.78;;;10.90;99.90;;;;;;5067446;28;20548;-41
2022/01/02 11:35:56;;;;;;;12.52;6.38;;;11.20;99.90;;;;;;5067813;28;20470;-42
2022/01/02 11:38:25;;;;;;;12.43;5.88;;;10.80;99.90;;;;;;5057211;28;20044;-42
2022/01/02 11:40:55;;;;;;;14.65;5.95;;;10.60;99.90;;;;;;5030530;28;20049;-41
2022/01/02 11:43:37;;;;;;;11.82;6.28;;;10.70;99.90;;;;;;5047810;28;20391;-43
2022/01/02 11:46:51;;;;;;;14.15;5.97;;;10.60;99.90;;;;;;5047923;28;20064;-42
2022/01/02 11:49:41;;;;;;;12.63;6.05;;;10.70;99.90;;;;;;5039443;28;20057;-41
2022/01/02 11:52:23;;;;;;;12.05;5.28;;;10.70;99.90;;;;;;5047743;28;20051;-42
2022/01/02 11:54:52;;;;;;;15.50;6.38;;;10.70;99.90;;;;;;5029833;28;20509;-41
2022/01/02 11:57:22;;;;;;;13.70;5.95;;;10.70;99.90;;;;;;5047415;28;20056;-41
2022/01/02 11:59:48;;;;;;;15.07;7.47;;;10.70;99.90;;;;;;5047618;28;20550;-41
2022/01/02 12:02:25;;;;;;;13.50;5.55;;;10.70;99.90;;;;;;5047101;28;20153;-42
2022/01/02 12:10:26;;;;;;;12.82;4.97;;;10.60;99.90;;;;;;5040265;28;20045;-42
2022/01/02 12:13:13;;;;;;;11.53;4.30;;;10.60;99.90;;;;;;5038371;28;20123;-44
2022/01/02 12:15:39;;;;;;;13.77;4.60;;;10.70;99.90;;;;;;5041706;28;20045;-43
2022/01/02 12:18:17;;;;;;;10.13;3.65;;;10.70;99.90;;;;;;5027086;28;20048;-50
2022/01/02 12:23:29;;;;;;;8.73;3.65;;;10.70;99.90;;;;;;5042267;28;20037;-46
2022/01/02 12:26:01;;;;;;;12.80;3.72;;;10.70;99.90;;;;;;5037968;28;20427;-45
2022/01/02 12:28:29;;;;;;;17.85;3.38;;;10.70;99.90;;;;;;5042194;28;20037;-48
2022/01/02 12:30:56;;;;;;;17.55;5.25;;;10.70;99.90;;;;;;5044668;28;20037;-48
2022/01/02 12:33:24;;;;;;;12.40;3.60;;;10.50;99.90;;;;;;5054396;28;20052;-45
2022/01/02 12:35:50;;;;;;;9.05;1.45;;;10.70;99.90;;;;;;5065548;28;20084;-44
2022/01/02 12:38:16;;;;;;;17.65;3.42;;;10.70;99.90;;;;;;5066120;28;20091;-44
2022/01/02 12:40:42;;;;;;;11.98;2.58;;;10.70;99.90;;;;;;5065614;28;20119;-44
2022/01/02 12:43:09;;;;;;;13.23;2.15;;;10.70;99.90;;;;;;5065193;28;20098;-50
2022/01/02 12:45:35;;;;;;;9.93;1.70;;;10.60;99.90;;;;;;5066057;28;20447;-47
2022/01/02 12:48:03;;;;;;;17.70;4.13;;;10.80;99.90;;;;;;5064503;28;20102;-52
2022/01/02 12:50:32;;;;;;;8.85;1.73;;;10.80;99.90;;;;;;5065892;28;20032;-51
2022/01/02 12:52:59;;;;;;;10.77;1.40;;;10.90;99.90;;;;;;5063744;28;20048;-48
2022/01/02 12:55:26;;;;;;;12.95;2.22;;;10.70;99.90;;;;;;5065162;28;20036;-57
2022/01/02 12:58:06;;;;;;;11.27;1.90;;;10.80;99.90;;;;;;5046954;28;20037;-45